sensor_id;sensor_type;location;lat;lon;timestamp;P1;durP1;ratioP1;P2;durP2;ratioP2
5967;SDS011;3010;51.028;4.170;2023-10-13T00:00:52;8.40;;;5.80;;
5967;SDS011;3010;51.028;4.170;2023-10-13T00:03:18;9.33;;;5.83;;
5967;SDS011;3010;51.028;4.170;2023-10-13T00:05:45;11.63;;;6.20;;
5967;SDS011;3010;51.028;4.170;2023-10-13T00:08:11;6.53;;;5.00;;
5967;SDS011;3010;51.028;4.170;2023-10-13T00:10:38;9.30;;;6.03;;
5967;SDS011;3010;51.028;4.170;2023-10-13T00:13:05;8.27;;;6.27;;
5967;SDS011;3010;51.028;4.170;2023-10-13T00:15:32;8.30;;;5.83;;
5967;SDS011;3010;51.028;4.170;2023-10-13T00:17:58;10.73;;;6.30;;
5967;SDS011;3010;51.028;4.170;2023-10-13T00:20:24;12.50;;;5.50;;
5967;SDS011;3010;51.028;4.170;2023-10-13T00:22:54;8.07;;;5.23;;
5967;SDS011;3010;51.028;4.170;2023-10-13T00:25:20;8.15;;;6.80;;
5967;SDS011;3010;51.028;4.170;2023-10-13T00:27:47;11.07;;;6.13;;
5967;SDS011;3010;51.028;4.170;2023-10-13T00:30:14;10.17;;;5.80;;
5967;SDS011;3010;51.028;4.170;2023-10-13T00:32:41;12.37;;;6.23;;
5967;SDS011;3010;51.028;4.170;2023-10-13T00:35:07;6.63;;;5.97;;
5967;SDS011;3010;51.028;4.170;2023-10-13T00:37:33;10.27;;;6.33;;
5967;SDS011;3010;51.028;4.170;2023-10-13T00:40:00;6.70;;;6.10;;
5967;SDS011;3010;51.028;4.170;2023-10-13T00:42:27;6.67;;;5.67;;
5967;SDS011;3010;51.028;4.170;2023-10-13T00:44:53;9.40;;;5.83;;
5967;SDS011;3010;51.028;4.170;2023-10-13T00:47:20;6.83;;;6.07;;
5967;SDS011;3010;51.028;4.170;2023-10-13T00:50:01;12.07;;;6.63;;
5967;SDS011;3010;51.028;4.170;2023-10-13T00:52:28;9.40;;;5.87;;
5967;SDS011;3010;51.028;4.170;2023-10-13T00:54:54;7.07;;;5.50;;
5967;SDS011;3010;51.028;4.170;2023-10-13T00:57:21;8.10;;;5.63;;
5967;SDS011;3010;51.028;4.170;2023-10-13T00:59:54;11.40;;;6.07;;
5967;SDS011;3010;51.028;4.170;2023-10-13T01:02:23;7.47;;;5.70;;
5967;SDS011;3010;51.028;4.170;2023-10-13T01:05:04;10.30;;;6.53;;
5967;SDS011;3010;51.028;4.170;2023-10-13T01:07:31;11.77;;;7.33;;
5967;SDS011;3010;51.028;4.170;2023-10-13T01:09:55;13.07;;;7.47;;
5967;SDS011;3010;51.028;4.170;2023-10-13T01:12:21;9.00;;;8.07;;
5967;SDS011;3010;51.028;4.170;2023-10-13T01:14:51;11.47;;;7.50;;
5967;SDS011;3010;51.028;4.170;2023-10-13T01:17:17;10.60;;;7.53;;
5967;SDS011;3010;51.028;4.170;2023-10-13T01:19:44;14.53;;;8.40;;
5967;SDS011;3010;51.028;4.170;2023-10-13T01:22:14;12.83;;;8.50;;
5967;SDS011;3010;51.028;4.170;2023-10-13T01:24:40;16.67;;;8.87;;
5967;SDS011;3010;51.028;4.170;2023-10-13T01:27:07;12.60;;;9.40;;
5967;SDS011;3010;51.028;4.170;2023-10-13T01:29:43;20.37;;;10.17;;
5967;SDS011;3010;51.028;4.170;2023-10-13T01:32:09;14.23;;;10.47;;
5967;SDS011;3010;51.028;4.170;2023-10-13T01:34:35;13.40;;;10.30;;
5967;SDS011;3010;51.028;4.170;2023-10-13T01:37:02;21.17;;;12.40;;
5967;SDS011;3010;51.028;4.170;2023-10-13T01:39:29;19.63;;;11.67;;
5967;SDS011;3010;51.028;4.170;2023-10-13T01:41:55;17.70;;;12.07;;
5967;SDS011;3010;51.028;4.170;2023-10-13T01:44:25;13.27;;;11.80;;
5967;SDS011;3010;51.028;4.170;2023-10-13T01:46:54;18.27;;;12.90;;
5967;SDS011;3010;51.028;4.170;2023-10-13T01:49:20;17.37;;;13.33;;
5967;SDS011;3010;51.028;4.170;2023-10-13T01:51:47;22.47;;;13.80;;
5967;SDS011;3010;51.028;4.170;2023-10-13T01:54:14;19.20;;;14.23;;
5967;SDS011;3010;51.028;4.170;2023-10-13T01:56:40;21.17;;;13.83;;
5967;SDS011;3010;51.028;4.170;2023-10-13T01:59:11;22.83;;;15.87;;
5967;SDS011;3010;51.028;4.170;2023-10-13T02:01:37;17.80;;;14.00;;
5967;SDS011;3010;51.028;4.170;2023-10-13T02:04:03;20.77;;;15.30;;
5967;SDS011;3010;51.028;4.170;2023-10-13T02:06:30;28.00;;;16.53;;
5967;SDS011;3010;51.028;4.170;2023-10-13T02:09:05;22.37;;;16.13;;
5967;SDS011;3010;51.028;4.170;2023-10-13T02:11:32;26.77;;;17.37;;
5967;SDS011;3010;51.028;4.170;2023-10-13T02:13:58;25.60;;;17.33;;
5967;SDS011;3010;51.028;4.170;2023-10-13T02:16:25;27.07;;;18.17;;
5967;SDS011;3010;51.028;4.170;2023-10-13T02:18:51;24.73;;;18.47;;
5967;SDS011;3010;51.028;4.170;2023-10-13T02:21:18;32.23;;;21.23;;
5967;SDS011;3010;51.028;4.170;2023-10-13T02:23:45;38.90;;;21.23;;
5967;SDS011;3010;51.028;4.170;2023-10-13T02:26:14;38.57;;;25.83;;
5967;SDS011;3010;51.028;4.170;2023-10-13T02:28:41;33.33;;;23.40;;
5967;SDS011;3010;51.028;4.170;2023-10-13T02:31:07;33.57;;;24.60;;
5967;SDS011;3010;51.028;4.170;2023-10-13T02:33:34;34.23;;;23.47;;
5967;SDS011;3010;51.028;4.170;2023-10-13T02:36:01;30.90;;;21.73;;
5967;SDS011;3010;51.028;4.170;2023-10-13T02:38:33;33.95;;;22.62;;
5967;SDS011;3010;51.028;4.170;2023-10-13T02:41:00;30.27;;;19.10;;
5967;SDS011;3010;51.028;4.170;2023-10-13T02:43:35;31.15;;;22.67;;
5967;SDS011;3010;51.028;4.170;2023-10-13T02:46:01;31.00;;;18.97;;
5967;SDS011;3010;51.028;4.170;2023-10-13T02:48:28;25.67;;;17.20;;
5967;SDS011;3010;51.028;4.170;2023-10-13T02:51:06;25.57;;;16.90;;
5967;SDS011;3010;51.028;4.170;2023-10-13T02:53:33;24.50;;;17.47;;
5967;SDS011;3010;51.028;4.170;2023-10-13T02:55:59;27.03;;;16.60;;
5967;SDS011;3010;51.028;4.170;2023-10-13T02:58:26;25.67;;;16.73;;
5967;SDS011;3010;51.028;4.170;2023-10-13T03:00:53;24.53;;;16.80;;
5967;SDS011;3010;51.028;4.170;2023-10-13T03:03:19;20.23;;;15.47;;
5967;SDS011;3010;51.028;4.170;2023-10-13T03:05:46;22.63;;;16.30;;
5967;SDS011;3010;51.028;4.170;2023-10-13T03:08:12;24.25;;;18.55;;
5967;SDS011;3010;51.028;4.170;2023-10-13T03:10:39;29.03;;;16.47;;
5967;SDS011;3010;51.028;4.170;2023-10-13T03:13:06;25.47;;;15.73;;
5967;SDS011;3010;51.028;4.170;2023-10-13T03:15:32;29.30;;;18.63;;
5967;SDS011;3010;51.028;4.170;2023-10-13T03:17:59;29.93;;;16.47;;
5967;SDS011;3010;51.028;4.170;2023-10-13T03:20:25;21.93;;;16.07;;
5967;SDS011;3010;51.028;4.170;2023-10-13T03:22:58;25.73;;;15.90;;
5967;SDS011;3010;51.028;4.170;2023-10-13T03:25:25;21.43;;;15.57;;
5967;SDS011;3010;51.028;4.170;2023-10-13T03:27:54;31.45;;;18.23;;
5967;SDS011;3010;51.028;4.170;2023-10-13T03:30:20;25.43;;;15.90;;
5967;SDS011;3010;51.028;4.170;2023-10-13T03:32:47;27.00;;;15.70;;
5967;SDS011;3010;51.028;4.170;2023-10-13T03:35:14;26.20;;;16.17;;
5967;SDS011;3010;51.028;4.170;2023-10-13T03:37:50;28.57;;;15.43;;
5967;SDS011;3010;51.028;4.170;2023-10-13T03:40:16;28.73;;;15.10;;
5967;SDS011;3010;51.028;4.170;2023-10-13T03:42:49;31.00;;;15.47;;
5967;SDS011;3010;51.028;4.170;2023-10-13T03:45:26;33.63;;;19.00;;
5967;SDS011;3010;51.028;4.170;2023-10-13T03:47:51;25.60;;;15.87;;
5967;SDS011;3010;51.028;4.170;2023-10-13T03:50:17;22.67;;;15.77;;
5967;SDS011;3010;51.028;4.170;2023-10-13T03:52:43;34.53;;;15.40;;
5967;SDS011;3010;51.028;4.170;2023-10-13T03:55:10;23.87;;;13.23;;
5967;SDS011;3010;51.028;4.170;2023-10-13T03:57:36;28.83;;;16.50;;
5967;SDS011;3010;51.028;4.170;2023-10-13T04:00:04;27.77;;;14.63;;
5967;SDS011;3010;51.028;4.170;2023-10-13T04:02:30;27.03;;;14.20;;
5967;SDS011;3010;51.028;4.170;2023-10-13T04:04:56;22.50;;;13.73;;
5967;SDS011;3010;51.028;4.170;2023-10-13T04:07:23;33.17;;;13.57;;
5967;SDS011;3010;51.028;4.170;2023-10-13T04:10:07;20.20;;;12.77;;
5967;SDS011;3010;51.028;4.170;2023-10-13T04:12:32;32.03;;;15.50;;
5967;SDS011;3010;51.028;4.170;2023-10-13T04:15:17;31.08;;;15.23;;
5967;SDS011;3010;51.028;4.170;2023-10-13T04:17:46;21.90;;;13.40;;
5967;SDS011;3010;51.028;4.170;2023-10-13T04:20:13;26.58;;;15.00;;
5967;SDS011;3010;51.028;4.170;2023-10-13T04:22:39;23.70;;;14.00;;
5967;SDS011;3010;51.028;4.170;2023-10-13T04:25:24;24.73;;;12.77;;
5967;SDS011;3010;51.028;4.170;2023-10-13T04:28:05;24.53;;;12.87;;
5967;SDS011;3010;51.028;4.170;2023-10-13T04:30:37;23.17;;;12.23;;
5967;SDS011;3010;51.028;4.170;2023-10-13T04:36:10;24.03;;;12.87;;
5967;SDS011;3010;51.028;4.170;2023-10-13T04:38:46;30.80;;;12.50;;
5967;SDS011;3010;51.028;4.170;2023-10-13T04:41:28;30.00;;;14.20;;
5967;SDS011;3010;51.028;4.170;2023-10-13T04:44:09;25.08;;;14.05;;
5967;SDS011;3010;51.028;4.170;2023-10-13T04:46:53;19.93;;;11.83;;
5967;SDS011;3010;51.028;4.170;2023-10-13T04:49:20;25.77;;;12.60;;
5967;SDS011;3010;51.028;4.170;2023-10-13T04:51:56;25.43;;;12.07;;
5967;SDS011;3010;51.028;4.170;2023-10-13T04:54:25;19.70;;;12.17;;
5967;SDS011;3010;51.028;4.170;2023-10-13T04:56:51;27.70;;;12.57;;
5967;SDS011;3010;51.028;4.170;2023-10-13T04:59:36;22.97;;;11.73;;
5967;SDS011;3010;51.028;4.170;2023-10-13T05:02:03;17.17;;;10.80;;
5967;SDS011;3010;51.028;4.170;2023-10-13T05:04:44;20.53;;;10.90;;
5967;SDS011;3010;51.028;4.170;2023-10-13T05:07:26;30.75;;;14.20;;
5967;SDS011;3010;51.028;4.170;2023-10-13T05:10:11;26.37;;;12.95;;
5967;SDS011;3010;51.028;4.170;2023-10-13T05:12:56;16.77;;;10.83;;
5967;SDS011;3010;51.028;4.170;2023-10-13T05:15:47;26.77;;;11.40;;
5967;SDS011;3010;51.028;4.170;2023-10-13T05:18:10;25.23;;;11.00;;
5967;SDS011;3010;51.028;4.170;2023-10-13T05:20:55;20.77;;;10.47;;
5967;SDS011;3010;51.028;4.170;2023-10-13T05:23:40;21.97;;;9.50;;
5967;SDS011;3010;51.028;4.170;2023-10-13T05:26:25;19.70;;;10.00;;
5967;SDS011;3010;51.028;4.170;2023-10-13T05:29:10;24.83;;;10.40;;
5967;SDS011;3010;51.028;4.170;2023-10-13T05:31:55;20.27;;;10.23;;
5967;SDS011;3010;51.028;4.170;2023-10-13T05:34:40;21.37;;;10.70;;
5967;SDS011;3010;51.028;4.170;2023-10-13T05:37:25;23.43;;;10.40;;
5967;SDS011;3010;51.028;4.170;2023-10-13T05:40:10;28.57;;;10.93;;
5967;SDS011;3010;51.028;4.170;2023-10-13T05:42:55;24.30;;;9.83;;
5967;SDS011;3010;51.028;4.170;2023-10-13T05:45:40;23.50;;;11.03;;
5967;SDS011;3010;51.028;4.170;2023-10-13T05:48:06;24.33;;;10.93;;
5967;SDS011;3010;51.028;4.170;2023-10-13T05:50:39;24.90;;;10.53;;
5967;SDS011;3010;51.028;4.170;2023-10-13T05:53:23;20.90;;;10.30;;
5967;SDS011;3010;51.028;4.170;2023-10-13T05:56:02;23.57;;;9.97;;
5967;SDS011;3010;51.028;4.170;2023-10-13T05:58:47;21.27;;;9.80;;
5967;SDS011;3010;51.028;4.170;2023-10-13T06:01:31;18.77;;;10.17;;
5967;SDS011;3010;51.028;4.170;2023-10-13T06:04:16;22.00;;;10.20;;
5967;SDS011;3010;51.028;4.170;2023-10-13T06:07:01;18.87;;;10.00;;
5967;SDS011;3010;51.028;4.170;2023-10-13T06:09:34;20.13;;;9.33;;
5967;SDS011;3010;51.028;4.170;2023-10-13T06:12:18;20.23;;;9.87;;
5967;SDS011;3010;51.028;4.170;2023-10-13T06:15:03;18.83;;;9.93;;
5967;SDS011;3010;51.028;4.170;2023-10-13T06:17:48;29.17;;;10.37;;
5967;SDS011;3010;51.028;4.170;2023-10-13T06:20:37;22.57;;;9.70;;
5967;SDS011;3010;51.028;4.170;2023-10-13T06:23:18;23.87;;;10.60;;
5967;SDS011;3010;51.028;4.170;2023-10-13T06:26:02;18.37;;;10.70;;
5967;SDS011;3010;51.028;4.170;2023-10-13T06:28:47;29.77;;;12.75;;
5967;SDS011;3010;51.028;4.170;2023-10-13T06:31:14;20.47;;;10.60;;
5967;SDS011;3010;51.028;4.170;2023-10-13T06:33:41;24.57;;;11.17;;
5967;SDS011;3010;51.028;4.170;2023-10-13T06:36:10;22.67;;;11.50;;
5967;SDS011;3010;51.028;4.170;2023-10-13T06:38:37;27.43;;;10.40;;
5967;SDS011;3010;51.028;4.170;2023-10-13T06:41:03;23.13;;;10.43;;
5967;SDS011;3010;51.028;4.170;2023-10-13T06:43:33;24.43;;;10.77;;
5967;SDS011;3010;51.028;4.170;2023-10-13T06:46:00;18.20;;;10.53;;
5967;SDS011;3010;51.028;4.170;2023-10-13T06:48:26;21.40;;;10.70;;
5967;SDS011;3010;51.028;4.170;2023-10-13T06:50:53;23.97;;;10.93;;
5967;SDS011;3010;51.028;4.170;2023-10-13T06:53:19;21.10;;;11.20;;
5967;SDS011;3010;51.028;4.170;2023-10-13T06:55:46;18.23;;;10.83;;
5967;SDS011;3010;51.028;4.170;2023-10-13T06:58:13;25.33;;;11.50;;
5967;SDS011;3010;51.028;4.170;2023-10-13T07:00:39;21.57;;;11.27;;
5967;SDS011;3010;51.028;4.170;2023-10-13T07:03:08;27.03;;;11.33;;
5967;SDS011;3010;51.028;4.170;2023-10-13T07:05:38;21.40;;;11.43;;
5967;SDS011;3010;51.028;4.170;2023-10-13T07:08:01;23.60;;;12.10;;
5967;SDS011;3010;51.028;4.170;2023-10-13T07:10:28;19.17;;;11.50;;
5967;SDS011;3010;51.028;4.170;2023-10-13T07:12:54;22.47;;;11.53;;
5967;SDS011;3010;51.028;4.170;2023-10-13T07:15:21;18.63;;;10.77;;
5967;SDS011;3010;51.028;4.170;2023-10-13T07:17:48;16.60;;;10.73;;
5967;SDS011;3010;51.028;4.170;2023-10-13T07:20:14;26.43;;;10.70;;
5967;SDS011;3010;51.028;4.170;2023-10-13T07:22:41;19.83;;;11.77;;
5967;SDS011;3010;51.028;4.170;2023-10-13T07:25:07;24.43;;;11.00;;
5967;SDS011;3010;51.028;4.170;2023-10-13T07:27:34;17.80;;;10.87;;
5967;SDS011;3010;51.028;4.170;2023-10-13T07:30:01;18.27;;;10.50;;
5967;SDS011;3010;51.028;4.170;2023-10-13T07:32:42;20.40;;;10.03;;
5967;SDS011;3010;51.028;4.170;2023-10-13T07:35:08;17.27;;;11.03;;
5967;SDS011;3010;51.028;4.170;2023-10-13T07:37:35;18.27;;;11.03;;
5967;SDS011;3010;51.028;4.170;2023-10-13T07:40:03;19.17;;;10.73;;
5967;SDS011;3010;51.028;4.170;2023-10-13T07:42:28;22.50;;;11.60;;
5967;SDS011;3010;51.028;4.170;2023-10-13T07:44:58;16.73;;;10.33;;
5967;SDS011;3010;51.028;4.170;2023-10-13T07:47:25;26.67;;;11.73;;
5967;SDS011;3010;51.028;4.170;2023-10-13T07:49:51;26.80;;;11.23;;
5967;SDS011;3010;51.028;4.170;2023-10-13T07:52:18;21.27;;;12.77;;
5967;SDS011;3010;51.028;4.170;2023-10-13T07:54:48;19.13;;;11.87;;
5967;SDS011;3010;51.028;4.170;2023-10-13T07:57:14;29.23;;;11.70;;
5967;SDS011;3010;51.028;4.170;2023-10-13T07:59:41;23.43;;;10.90;;
5967;SDS011;3010;51.028;4.170;2023-10-13T08:02:07;97.27;;;19.13;;
5967;SDS011;3010;51.028;4.170;2023-10-13T08:04:39;16.30;;;10.23;;
5967;SDS011;3010;51.028;4.170;2023-10-13T08:07:06;23.80;;;10.70;;
5967;SDS011;3010;51.028;4.170;2023-10-13T08:09:39;26.30;;;11.00;;
5967;SDS011;3010;51.028;4.170;2023-10-13T08:12:08;32.17;;;10.63;;
5967;SDS011;3010;51.028;4.170;2023-10-13T08:14:38;13.67;;;8.83;;
5967;SDS011;3010;51.028;4.170;2023-10-13T08:17:07;20.87;;;9.73;;
5967;SDS011;3010;51.028;4.170;2023-10-13T08:19:34;17.40;;;9.03;;
5967;SDS011;3010;51.028;4.170;2023-10-13T08:22:06;14.80;;;9.10;;
5967;SDS011;3010;51.028;4.170;2023-10-13T08:24:42;18.07;;;9.30;;
5967;SDS011;3010;51.028;4.170;2023-10-13T08:27:09;14.90;;;9.00;;
5967;SDS011;3010;51.028;4.170;2023-10-13T08:29:41;17.33;;;9.13;;
5967;SDS011;3010;51.028;4.170;2023-10-13T08:32:23;20.37;;;8.83;;
5967;SDS011;3010;51.028;4.170;2023-10-13T08:34:50;16.23;;;8.97;;
5967;SDS011;3010;51.028;4.170;2023-10-13T08:37:19;16.37;;;9.33;;
5967;SDS011;3010;51.028;4.170;2023-10-13T08:39:48;15.63;;;8.73;;
5967;SDS011;3010;51.028;4.170;2023-10-13T08:42:37;13.10;;;8.35;;
5967;SDS011;3010;51.028;4.170;2023-10-13T08:45:00;16.10;;;9.17;;
5967;SDS011;3010;51.028;4.170;2023-10-13T08:47:26;11.77;;;8.03;;
5967;SDS011;3010;51.028;4.170;2023-10-13T08:49:53;13.20;;;8.67;;
5967;SDS011;3010;51.028;4.170;2023-10-13T08:52:20;13.43;;;8.63;;
5967;SDS011;3010;51.028;4.170;2023-10-13T08:55:05;13.53;;;8.27;;
5967;SDS011;3010;51.028;4.170;2023-10-13T08:57:31;15.10;;;8.27;;
5967;SDS011;3010;51.028;4.170;2023-10-13T09:00:00;12.30;;;7.83;;
5967;SDS011;3010;51.028;4.170;2023-10-13T09:02:27;15.47;;;9.13;;
5967;SDS011;3010;51.028;4.170;2023-10-13T09:05:12;13.23;;;7.80;;
5967;SDS011;3010;51.028;4.170;2023-10-13T09:07:57;15.80;;;7.63;;
5967;SDS011;3010;51.028;4.170;2023-10-13T09:10:23;16.73;;;8.65;;
5967;SDS011;3010;51.028;4.170;2023-10-13T09:12:59;19.17;;;7.67;;
5967;SDS011;3010;51.028;4.170;2023-10-13T09:15:29;12.23;;;8.07;;
5967;SDS011;3010;51.028;4.170;2023-10-13T09:17:55;16.67;;;8.40;;
5967;SDS011;3010;51.028;4.170;2023-10-13T09:20:28;11.50;;;8.17;;
5967;SDS011;3010;51.028;4.170;2023-10-13T09:23:09;15.97;;;8.20;;
5967;SDS011;3010;51.028;4.170;2023-10-13T09:25:36;16.63;;;8.00;;
5967;SDS011;3010;51.028;4.170;2023-10-13T09:28:12;17.90;;;8.23;;
5967;SDS011;3010;51.028;4.170;2023-10-13T09:30:48;16.17;;;8.20;;
5967;SDS011;3010;51.028;4.170;2023-10-13T09:33:19;15.07;;;8.33;;
5967;SDS011;3010;51.028;4.170;2023-10-13T09:35:42;14.50;;;7.47;;
5967;SDS011;3010;51.028;4.170;2023-10-13T09:38:07;18.00;;;8.47;;
5967;SDS011;3010;51.028;4.170;2023-10-13T09:40:34;17.48;;;8.85;;
5967;SDS011;3010;51.028;4.170;2023-10-13T09:43:01;10.20;;;7.20;;
5967;SDS011;3010;51.028;4.170;2023-10-13T09:45:27;15.77;;;8.43;;
5967;SDS011;3010;51.028;4.170;2023-10-13T09:47:55;11.90;;;7.87;;
5967;SDS011;3010;51.028;4.170;2023-10-13T09:50:20;13.17;;;8.17;;
5967;SDS011;3010;51.028;4.170;2023-10-13T09:52:50;10.50;;;8.03;;
5967;SDS011;3010;51.028;4.170;2023-10-13T09:55:21;15.23;;;8.80;;
5967;SDS011;3010;51.028;4.170;2023-10-13T09:57:53;12.97;;;8.40;;
5967;SDS011;3010;51.028;4.170;2023-10-13T10:00:17;16.98;;;8.70;;
5967;SDS011;3010;51.028;4.170;2023-10-13T10:02:54;17.23;;;8.20;;
5967;SDS011;3010;51.028;4.170;2023-10-13T10:05:23;13.37;;;8.57;;
5967;SDS011;3010;51.028;4.170;2023-10-13T10:07:56;14.47;;;8.40;;
5967;SDS011;3010;51.028;4.170;2023-10-13T10:10:23;16.92;;;8.70;;
5967;SDS011;3010;51.028;4.170;2023-10-13T10:12:56;17.13;;;8.53;;
5967;SDS011;3010;51.028;4.170;2023-10-13T10:15:37;13.77;;;8.67;;
5967;SDS011;3010;51.028;4.170;2023-10-13T10:18:19;17.63;;;9.40;;
5967;SDS011;3010;51.028;4.170;2023-10-13T10:20:48;20.30;;;8.13;;
5967;SDS011;3010;51.028;4.170;2023-10-13T10:23:27;12.90;;;7.90;;
5967;SDS011;3010;51.028;4.170;2023-10-13T10:25:53;10.77;;;7.83;;
5967;SDS011;3010;51.028;4.170;2023-10-13T10:28:19;16.13;;;8.07;;
5967;SDS011;3010;51.028;4.170;2023-10-13T10:30:46;14.00;;;7.97;;
5967;SDS011;3010;51.028;4.170;2023-10-13T10:33:13;13.97;;;7.73;;
5967;SDS011;3010;51.028;4.170;2023-10-13T10:35:40;16.93;;;8.77;;
5967;SDS011;3010;51.028;4.170;2023-10-13T10:38:12;16.07;;;8.23;;
5967;SDS011;3010;51.028;4.170;2023-10-13T10:43:38;12.80;;;8.10;;
5967;SDS011;3010;51.028;4.170;2023-10-13T10:46:17;17.63;;;8.43;;
5967;SDS011;3010;51.028;4.170;2023-10-13T10:48:44;16.80;;;8.43;;
5967;SDS011;3010;51.028;4.170;2023-10-13T10:51:10;20.37;;;9.07;;
5967;SDS011;3010;51.028;4.170;2023-10-13T10:53:49;15.67;;;8.37;;
5967;SDS011;3010;51.028;4.170;2023-10-13T10:56:17;17.97;;;8.47;;
5967;SDS011;3010;51.028;4.170;2023-10-13T10:59:01;21.03;;;8.93;;
5967;SDS011;3010;51.028;4.170;2023-10-13T11:01:28;13.03;;;8.67;;
5967;SDS011;3010;51.028;4.170;2023-10-13T11:04:00;22.67;;;8.53;;
5967;SDS011;3010;51.028;4.170;2023-10-13T11:06:46;18.47;;;9.17;;
5967;SDS011;3010;51.028;4.170;2023-10-13T11:09:12;13.80;;;8.37;;
5967;SDS011;3010;51.028;4.170;2023-10-13T11:11:47;16.63;;;8.80;;
5967;SDS011;3010;51.028;4.170;2023-10-13T11:14:19;14.43;;;7.73;;
5967;SDS011;3010;51.028;4.170;2023-10-13T11:16:46;13.73;;;8.77;;
5967;SDS011;3010;51.028;4.170;2023-10-13T11:19:12;18.87;;;8.90;;
5967;SDS011;3010;51.028;4.170;2023-10-13T11:21:39;15.97;;;8.67;;
5967;SDS011;3010;51.028;4.170;2023-10-13T11:24:06;17.33;;;8.43;;
5967;SDS011;3010;51.028;4.170;2023-10-13T11:26:36;19.23;;;8.23;;
5967;SDS011;3010;51.028;4.170;2023-10-13T11:29:06;16.60;;;8.40;;
5967;SDS011;3010;51.028;4.170;2023-10-13T11:31:32;15.97;;;8.13;;
5967;SDS011;3010;51.028;4.170;2023-10-13T11:33:59;16.37;;;8.53;;
5967;SDS011;3010;51.028;4.170;2023-10-13T11:36:25;16.43;;;7.70;;
5967;SDS011;3010;51.028;4.170;2023-10-13T11:38:52;17.33;;;8.40;;
5967;SDS011;3010;51.028;4.170;2023-10-13T11:41:19;25.57;;;8.87;;
5967;SDS011;3010;51.028;4.170;2023-10-13T11:43:46;19.70;;;7.17;;
5967;SDS011;3010;51.028;4.170;2023-10-13T11:46:27;16.23;;;8.00;;
5967;SDS011;3010;51.028;4.170;2023-10-13T11:49:02;11.83;;;7.30;;
5967;SDS011;3010;51.028;4.170;2023-10-13T11:51:52;17.03;;;8.37;;
5967;SDS011;3010;51.028;4.170;2023-10-13T11:54:28;21.67;;;7.03;;
5967;SDS011;3010;51.028;4.170;2023-10-13T11:56:54;18.15;;;7.55;;
5967;SDS011;3010;51.028;4.170;2023-10-13T11:59:24;18.20;;;7.93;;
5967;SDS011;3010;51.028;4.170;2023-10-13T12:01:50;16.50;;;7.73;;
5967;SDS011;3010;51.028;4.170;2023-10-13T12:04:35;19.60;;;7.40;;
5967;SDS011;3010;51.028;4.170;2023-10-13T12:07:20;16.33;;;7.20;;
5967;SDS011;3010;51.028;4.170;2023-10-13T12:09:47;14.33;;;7.33;;
5967;SDS011;3010;51.028;4.170;2023-10-13T12:12:22;14.63;;;7.83;;
5967;SDS011;3010;51.028;4.170;2023-10-13T12:14:49;18.20;;;7.00;;
5967;SDS011;3010;51.028;4.170;2023-10-13T12:17:19;18.23;;;7.00;;
5967;SDS011;3010;51.028;4.170;2023-10-13T12:19:45;15.20;;;6.83;;
5967;SDS011;3010;51.028;4.170;2023-10-13T12:22:12;19.80;;;7.57;;
5967;SDS011;3010;51.028;4.170;2023-10-13T12:24:38;14.50;;;7.17;;
5967;SDS011;3010;51.028;4.170;2023-10-13T12:27:08;18.83;;;7.63;;
5967;SDS011;3010;51.028;4.170;2023-10-13T12:29:47;12.07;;;6.70;;
5967;SDS011;3010;51.028;4.170;2023-10-13T12:32:16;11.80;;;7.10;;
5967;SDS011;3010;51.028;4.170;2023-10-13T12:34:42;13.93;;;6.53;;
5967;SDS011;3010;51.028;4.170;2023-10-13T12:37:12;22.40;;;7.87;;
5967;SDS011;3010;51.028;4.170;2023-10-13T12:39:57;9.47;;;5.83;;
5967;SDS011;3010;51.028;4.170;2023-10-13T12:42:42;12.43;;;6.20;;
5967;SDS011;3010;51.028;4.170;2023-10-13T12:45:27;13.63;;;6.43;;
5967;SDS011;3010;51.028;4.170;2023-10-13T12:48:11;12.03;;;5.87;;
5967;SDS011;3010;51.028;4.170;2023-10-13T12:50:56;14.30;;;5.90;;
5967;SDS011;3010;51.028;4.170;2023-10-13T12:53:26;12.20;;;6.37;;
5967;SDS011;3010;51.028;4.170;2023-10-13T12:55:53;12.33;;;6.03;;
5967;SDS011;3010;51.028;4.170;2023-10-13T12:58:19;15.60;;;6.87;;
5967;SDS011;3010;51.028;4.170;2023-10-13T13:00:45;9.60;;;6.00;;
5967;SDS011;3010;51.028;4.170;2023-10-13T13:03:12;13.23;;;7.00;;
5967;SDS011;3010;51.028;4.170;2023-10-13T13:05:38;12.03;;;5.97;;
5967;SDS011;3010;51.028;4.170;2023-10-13T13:08:05;11.50;;;6.50;;
5967;SDS011;3010;51.028;4.170;2023-10-13T13:10:32;12.43;;;6.20;;
5967;SDS011;3010;51.028;4.170;2023-10-13T13:13:02;11.27;;;6.03;;
5967;SDS011;3010;51.028;4.170;2023-10-13T13:15:28;11.63;;;5.90;;
5967;SDS011;3010;51.028;4.170;2023-10-13T13:17:55;15.40;;;6.73;;
5967;SDS011;3010;51.028;4.170;2023-10-13T13:20:21;12.00;;;6.97;;
5967;SDS011;3010;51.028;4.170;2023-10-13T13:22:54;13.63;;;6.33;;
5967;SDS011;3010;51.028;4.170;2023-10-13T13:25:20;16.77;;;6.63;;
5967;SDS011;3010;51.028;4.170;2023-10-13T13:27:53;15.93;;;6.73;;
5967;SDS011;3010;51.028;4.170;2023-10-13T13:30:20;12.43;;;7.37;;
5967;SDS011;3010;51.028;4.170;2023-10-13T13:32:46;11.27;;;6.67;;
5967;SDS011;3010;51.028;4.170;2023-10-13T13:35:13;13.20;;;6.10;;
5967;SDS011;3010;51.028;4.170;2023-10-13T13:37:40;10.33;;;6.07;;
5967;SDS011;3010;51.028;4.170;2023-10-13T13:40:06;8.47;;;6.00;;
5967;SDS011;3010;51.028;4.170;2023-10-13T13:42:42;17.80;;;6.37;;
5967;SDS011;3010;51.028;4.170;2023-10-13T13:45:14;13.50;;;6.50;;
5967;SDS011;3010;51.028;4.170;2023-10-13T13:47:43;7.77;;;6.53;;
5967;SDS011;3010;51.028;4.170;2023-10-13T13:50:10;8.63;;;5.63;;
5967;SDS011;3010;51.028;4.170;2023-10-13T13:52:37;10.73;;;6.90;;
5967;SDS011;3010;51.028;4.170;2023-10-13T13:55:03;11.12;;;6.50;;
5967;SDS011;3010;51.028;4.170;2023-10-13T13:57:30;10.23;;;5.90;;
5967;SDS011;3010;51.028;4.170;2023-10-13T13:59:56;13.07;;;6.13;;
5967;SDS011;3010;51.028;4.170;2023-10-13T14:02:23;11.83;;;6.47;;
5967;SDS011;3010;51.028;4.170;2023-10-13T14:04:50;9.10;;;6.40;;
5967;SDS011;3010;51.028;4.170;2023-10-13T14:07:19;10.57;;;6.00;;
5967;SDS011;3010;51.028;4.170;2023-10-13T14:09:46;13.37;;;6.10;;
5967;SDS011;3010;51.028;4.170;2023-10-13T14:12:12;14.43;;;6.60;;
5967;SDS011;3010;51.028;4.170;2023-10-13T14:14:57;12.90;;;6.40;;
5967;SDS011;3010;51.028;4.170;2023-10-13T14:17:24;10.17;;;6.10;;
5967;SDS011;3010;51.028;4.170;2023-10-13T14:19:50;9.03;;;6.73;;
5967;SDS011;3010;51.028;4.170;2023-10-13T14:22:17;12.40;;;6.27;;
5967;SDS011;3010;51.028;4.170;2023-10-13T14:24:43;14.77;;;6.60;;
5967;SDS011;3010;51.028;4.170;2023-10-13T14:27:10;15.80;;;5.97;;
5967;SDS011;3010;51.028;4.170;2023-10-13T14:29:40;10.05;;;6.40;;
5967;SDS011;3010;51.028;4.170;2023-10-13T14:32:09;13.00;;;6.55;;
5967;SDS011;3010;51.028;4.170;2023-10-13T14:34:39;9.47;;;6.70;;
5967;SDS011;3010;51.028;4.170;2023-10-13T14:37:08;11.63;;;6.50;;
5967;SDS011;3010;51.028;4.170;2023-10-13T14:39:34;7.60;;;6.10;;
5967;SDS011;3010;51.028;4.170;2023-10-13T14:42:01;9.80;;;6.07;;
5967;SDS011;3010;51.028;4.170;2023-10-13T14:44:28;10.07;;;6.00;;
5967;SDS011;3010;51.028;4.170;2023-10-13T14:46:54;11.85;;;6.53;;
5967;SDS011;3010;51.028;4.170;2023-10-13T14:49:21;13.67;;;6.50;;
5967;SDS011;3010;51.028;4.170;2023-10-13T14:51:47;13.15;;;6.43;;
5967;SDS011;3010;51.028;4.170;2023-10-13T14:54:14;11.13;;;6.13;;
5967;SDS011;3010;51.028;4.170;2023-10-13T14:56:40;13.10;;;5.73;;
5967;SDS011;3010;51.028;4.170;2023-10-13T14:59:07;12.37;;;6.40;;
5967;SDS011;3010;51.028;4.170;2023-10-13T15:01:34;13.57;;;6.40;;
5967;SDS011;3010;51.028;4.170;2023-10-13T15:04:00;15.83;;;6.80;;
5967;SDS011;3010;51.028;4.170;2023-10-13T15:06:27;9.23;;;6.70;;
5967;SDS011;3010;51.028;4.170;2023-10-13T15:08:57;12.93;;;6.13;;
5967;SDS011;3010;51.028;4.170;2023-10-13T15:11:25;11.50;;;6.30;;
5967;SDS011;3010;51.028;4.170;2023-10-13T15:13:54;8.80;;;6.00;;
5967;SDS011;3010;51.028;4.170;2023-10-13T15:16:21;11.53;;;6.37;;
5967;SDS011;3010;51.028;4.170;2023-10-13T15:18:47;11.00;;;6.27;;
5967;SDS011;3010;51.028;4.170;2023-10-13T15:21:26;12.73;;;6.65;;
5967;SDS011;3010;51.028;4.170;2023-10-13T15:23:55;13.60;;;6.97;;